createdAt,value
2022-09-12T00:01:54.091Z,14.20
2022-09-12T00:04:21.510Z,12.85
2022-09-12T00:06:48.443Z,12.50
2022-09-12T00:09:15.176Z,12.13
2022-09-12T00:11:44.573Z,12.10
2022-09-12T00:14:12.988Z,11.02
2022-09-12T00:16:40.633Z,10.93
2022-09-12T00:19:08.221Z,11.25
2022-09-12T00:21:35.834Z,14.20
2022-09-12T00:24:02.763Z,10.68
2022-09-12T00:26:30.871Z,11.68
2022-09-12T00:28:57.699Z,13.15
2022-09-12T00:31:25.964Z,12.95
2022-09-12T00:33:53.692Z,8.48
2022-09-12T00:36:21.922Z,9.75
2022-09-12T00:38:49.096Z,10.55
2022-09-12T00:41:20.732Z,7.63
2022-09-12T00:43:49.518Z,6.50
2022-09-12T00:46:28.907Z,5.65
2022-09-12T00:48:58.242Z,8.85
2022-09-12T00:51:25.077Z,10.68
2022-09-12T00:53:53.981Z,6.97
2022-09-12T00:56:22.202Z,8.93
2022-09-12T00:59:02.834Z,7.20
2022-09-12T01:01:32.611Z,9.93
2022-09-12T01:03:59.982Z,7.57
2022-09-12T01:06:37.600Z,8.55
2022-09-12T01:09:05.279Z,7.38
2022-09-12T01:11:34.306Z,7.40
2022-09-12T01:14:02.026Z,7.72
2022-09-12T01:16:28.772Z,9.35
2022-09-12T01:18:58.888Z,10.57
2022-09-12T01:21:39.410Z,10.85
2022-09-12T01:24:15.761Z,11.93
2022-09-12T01:26:58.828Z,12.45
2022-09-12T01:29:25.922Z,9.32
2022-09-12T01:32:04.543Z,11.68
2022-09-12T01:34:51.753Z,11.50
2022-09-12T01:37:28.612Z,12.18
2022-09-12T01:40:01.535Z,10.13
2022-09-12T01:42:35.222Z,14.68
2022-09-12T01:45:03.417Z,10.25
2022-09-12T01:47:44.270Z,7.40
2022-09-12T01:50:15.222Z,12.07
2022-09-12T01:52:51.908Z,13.80
2022-09-12T01:55:22.778Z,11.10
2022-09-12T01:57:54.334Z,7.30
2022-09-12T02:00:21.117Z,7.63
2022-09-12T02:02:58.996Z,13.68
2022-09-12T02:05:29.604Z,14.32
2022-09-12T02:08:03.253Z,6.95
2022-09-12T02:10:32.645Z,7.03
2022-09-12T02:13:18.152Z,9.43
2022-09-12T02:15:48.848Z,9.93
2022-09-12T02:18:18.505Z,11.80
2022-09-12T02:20:48.732Z,10.85
2022-09-12T02:23:18.753Z,12.60
2022-09-12T02:25:46.691Z,10.25
2022-09-12T02:28:22.307Z,12.65
2022-09-12T02:31:12.356Z,14.38
2022-09-12T02:33:44.890Z,14.13
2022-09-12T02:36:31.929Z,17.88
2022-09-12T02:38:58.932Z,13.00
2022-09-12T02:41:25.795Z,11.57
2022-09-12T02:43:53.048Z,10.43
2022-09-12T02:46:25.790Z,11.68
2022-09-12T02:48:53.209Z,12.23
2022-09-12T02:51:23.628Z,12.30
2022-09-12T02:53:50.852Z,10.82
2022-09-12T02:56:20.238Z,15.13
2022-09-12T02:58:47.886Z,12.57
2022-09-12T03:01:20.443Z,8.82
2022-09-12T03:04:13.496Z,6.72
2022-09-12T03:06:49.025Z,9.52
2022-09-12T03:09:15.789Z,17.00
2022-09-12T03:11:57.910Z,7.90
2022-09-12T03:14:35.922Z,7.53
2022-09-12T03:17:02.624Z,8.88
2022-09-12T03:19:33.789Z,8.60
2022-09-12T03:22:09.128Z,12.73
2022-09-12T03:24:39.776Z,9.00
2022-09-12T03:27:09.713Z,9.32
2022-09-12T03:29:37.561Z,8.95
2022-09-12T03:32:04.369Z,11.27
2022-09-12T03:34:31.141Z,8.00
2022-09-12T03:36:58.342Z,9.48
2022-09-12T03:39:26.988Z,14.88
2022-09-12T03:41:54.769Z,9.35
2022-09-12T03:44:21.869Z,9.75
2022-09-12T03:46:48.666Z,10.13
2022-09-12T03:49:15.517Z,15.52
2022-09-12T03:51:43.206Z,11.70
2022-09-12T03:54:10.430Z,9.45
2022-09-12T03:56:37.589Z,14.13
2022-09-12T03:59:07.552Z,9.52
2022-09-12T04:01:34.474Z,8.95
2022-09-12T04:04:01.503Z,14.32
2022-09-12T04:06:28.257Z,10.20
2022-09-12T04:08:55.508Z,14.77
2022-09-12T04:11:22.733Z,18.77
2022-09-12T04:13:50.051Z,14.82
2022-09-12T04:16:17.768Z,12.23
2022-09-12T04:18:44.927Z,13.93
2022-09-12T04:21:13.649Z,12.43
2022-09-12T04:23:40.517Z,11.20
2022-09-12T04:26:07.276Z,12.07
2022-09-12T04:28:35.208Z,14.05
2022-09-12T04:31:06.181Z,17.95
2022-09-12T04:33:33.434Z,17.50
2022-09-12T04:36:04.373Z,17.27
2022-09-12T04:38:31.211Z,19.80
2022-09-12T04:40:58.037Z,13.90
2022-09-12T04:43:24.832Z,13.18
2022-09-12T04:45:52.100Z,16.98
2022-09-12T04:48:18.950Z,25.52
2022-09-12T04:50:45.799Z,14.00
2022-09-12T04:53:12.532Z,14.57
2022-09-12T04:55:39.351Z,14.90
2022-09-12T04:58:06.041Z,19.73
2022-09-12T05:00:33.371Z,19.23
2022-09-12T05:03:00.390Z,16.33
2022-09-12T05:05:27.117Z,15.52
2022-09-12T05:07:53.923Z,19.52
2022-09-12T05:10:20.651Z,14.73
2022-09-12T05:12:48.471Z,22.00
2022-09-12T05:15:15.314Z,20.70
2022-09-12T05:17:42.054Z,15.43
2022-09-12T05:20:09.655Z,15.70
2022-09-12T05:22:36.365Z,17.42
2022-09-12T05:25:03.212Z,16.40
2022-09-12T05:27:30.075Z,20.85
2022-09-12T05:29:56.978Z,18.55
2022-09-12T05:32:23.773Z,18.90
2022-09-12T05:34:51.038Z,17.30
2022-09-12T05:37:17.806Z,20.52
2022-09-12T05:39:44.640Z,16.45
2022-09-12T05:42:12.029Z,11.95
2022-09-12T05:44:38.772Z,15.20
2022-09-12T05:47:05.635Z,13.40
2022-09-12T05:49:32.384Z,17.50
2022-09-12T05:51:59.117Z,23.77
2022-09-12T05:54:30.839Z,9.48
2022-09-12T05:56:58.402Z,17.35
2022-09-12T05:59:25.273Z,29.95
2022-09-12T06:01:52.529Z,21.70
2022-09-12T06:04:19.463Z,28.10
2022-09-12T06:06:46.470Z,23.10
2022-09-12T06:09:15.074Z,17.27
2022-09-12T06:11:42.560Z,16.65
2022-09-12T06:14:10.303Z,55.97
2022-09-12T06:16:38.051Z,15.93
2022-09-12T06:19:07.078Z,18.65
2022-09-12T06:21:37.977Z,17.48
2022-09-12T06:24:04.755Z,13.02
2022-09-12T06:26:31.625Z,13.88
2022-09-12T06:28:59.901Z,14.15
2022-09-12T06:31:30.697Z,22.98
2022-09-12T06:33:59.513Z,19.88
2022-09-12T06:36:28.080Z,19.77
2022-09-12T06:39:02.097Z,24.35
2022-09-12T06:41:29.669Z,20.95
2022-09-12T06:43:56.689Z,22.63
2022-09-12T06:46:23.555Z,21.67
2022-09-12T06:48:50.703Z,20.67
2022-09-12T06:51:18.414Z,21.63
2022-09-12T06:53:45.503Z,26.17
2022-09-12T06:56:16.865Z,19.17
2022-09-12T06:58:43.988Z,22.27
2022-09-12T07:01:15.557Z,28.38
2022-09-12T07:03:43.246Z,17.15
2022-09-12T07:06:13.295Z,17.73
2022-09-12T07:08:41.140Z,12.38
2022-09-12T07:11:11.246Z,11.55
2022-09-12T07:13:38.545Z,8.00
2022-09-12T07:16:05.802Z,12.57
2022-09-12T07:18:35.720Z,10.48
2022-09-12T07:21:02.996Z,16.92
2022-09-12T07:23:30.237Z,12.00
2022-09-12T07:25:57.956Z,12.93
2022-09-12T07:28:25.237Z,12.02
2022-09-12T07:30:54.020Z,9.38
2022-09-12T07:33:21.868Z,13.93
2022-09-12T07:35:49.694Z,10.73
2022-09-12T07:38:16.943Z,10.65
2022-09-12T07:40:44.008Z,11.90
2022-09-12T07:43:10.774Z,13.30
2022-09-12T07:45:37.697Z,6.32
2022-09-12T07:48:04.616Z,9.45
2022-09-12T07:50:31.436Z,8.38
2022-09-12T07:52:58.216Z,13.23
2022-09-12T07:55:25.231Z,6.95
2022-09-12T07:57:52.240Z,8.48
2022-09-12T08:00:19.383Z,10.98
2022-09-12T08:02:50.695Z,7.97
2022-09-12T08:05:17.541Z,5.57
2022-09-12T08:07:44.317Z,9.57
2022-09-12T08:10:11.152Z,8.90
2022-09-12T08:12:38.137Z,8.27
2022-09-12T08:15:05.124Z,12.00
2022-09-12T08:17:31.934Z,10.15
2022-09-12T08:20:00.391Z,8.73
2022-09-12T08:22:27.308Z,17.23
2022-09-12T08:24:54.099Z,17.80
2022-09-12T08:27:20.965Z,15.75
2022-09-12T08:29:47.837Z,9.45
2022-09-12T08:32:14.603Z,11.20
2022-09-12T08:34:41.330Z,12.70
2022-09-12T08:37:08.160Z,6.22
2022-09-12T08:39:34.995Z,11.48
2022-09-12T08:42:03.378Z,7.95
2022-09-12T08:44:39.819Z,10.75
2022-09-12T08:47:18.716Z,7.32
2022-09-12T08:49:45.581Z,14.57
2022-09-12T08:52:14.708Z,9.68
2022-09-12T08:54:43.098Z,10.90
2022-09-12T08:57:11.799Z,15.32
2022-09-12T08:59:40.219Z,18.98
2022-09-12T09:02:26.058Z,8.68
2022-09-12T09:05:12.555Z,14.15
2022-09-12T09:07:39.346Z,10.45
2022-09-12T09:10:14.166Z,11.57
2022-09-12T09:12:51.177Z,9.35
2022-09-12T09:15:25.081Z,8.30
2022-09-12T09:18:04.359Z,9.43
2022-09-12T09:20:39.539Z,6.75
2022-09-12T09:23:16.140Z,8.10
2022-09-12T09:25:49.987Z,5.72
2022-09-12T09:28:16.800Z,9.13
2022-09-12T09:30:44.892Z,11.48
2022-09-12T09:33:26.275Z,7.22
2022-09-12T09:36:15.857Z,8.27
2022-09-12T09:38:48.253Z,7.70
2022-09-12T09:41:15.210Z,9.90
2022-09-12T09:43:42.042Z,7.28
2022-09-12T09:46:08.958Z,4.97
2022-09-12T09:48:41.965Z,5.60
2022-09-12T09:51:09.470Z,11.57
2022-09-12T09:53:42.614Z,9.15
2022-09-12T09:56:11.991Z,7.25
2022-09-12T09:58:39.531Z,7.10
2022-09-12T10:01:12.272Z,8.10
2022-09-12T10:03:39.803Z,7.68
2022-09-12T10:06:08.360Z,9.13
2022-09-12T10:08:36.636Z,8.43
2022-09-12T10:11:05.557Z,5.78
2022-09-12T10:13:41.497Z,6.95
2022-09-12T10:16:21.076Z,9.88
2022-09-12T10:18:49.440Z,10.60
2022-09-12T10:21:31.398Z,12.38
2022-09-12T10:24:18.737Z,14.70
2022-09-12T10:26:51.396Z,5.47
2022-09-12T10:29:24.094Z,9.47
2022-09-12T10:31:56.381Z,5.03
2022-09-12T10:34:25.625Z,6.32
2022-09-12T10:36:54.249Z,7.03
2022-09-12T10:39:22.174Z,12.23
2022-09-12T10:41:49.082Z,5.85
2022-09-12T10:44:26.545Z,12.68
2022-09-12T10:46:54.569Z,6.75
2022-09-12T10:49:22.938Z,9.75
2022-09-12T10:51:50.789Z,13.55
2022-09-12T10:54:19.144Z,12.98
2022-09-12T10:56:52.915Z,6.15
2022-09-12T10:59:38.489Z,6.05
2022-09-12T11:02:24.814Z,6.18
2022-09-12T11:05:11.910Z,4.07
2022-09-12T11:07:50.043Z,5.22
2022-09-12T11:10:45.511Z,3.38
2022-09-12T11:13:31.024Z,5.45
2022-09-12T11:16:00.623Z,5.45
2022-09-12T11:18:30.328Z,8.95
2022-09-12T11:21:03.530Z,9.00
2022-09-12T11:23:36.132Z,5.57
2022-09-12T11:26:23.066Z,4.90
2022-09-12T11:28:56.376Z,12.65
2022-09-12T11:31:35.830Z,7.38
2022-09-12T11:34:09.184Z,10.57
2022-09-12T11:36:48.668Z,7.32
2022-09-12T11:39:32.153Z,4.95
2022-09-12T11:42:01.800Z,5.90
2022-09-12T11:44:32.614Z,7.63
2022-09-12T11:47:00.954Z,12.63
2022-09-12T11:49:58.938Z,5.68
2022-09-12T11:52:29.528Z,11.02
2022-09-12T11:55:05.471Z,14.15
2022-09-12T11:57:45.858Z,5.85
2022-09-12T12:00:12.856Z,7.38
2022-09-12T12:02:42.553Z,21.75
2022-09-12T12:05:26.407Z,9.57
2022-09-12T12:07:54.788Z,51.85
2022-09-12T12:10:31.257Z,81.18
2022-09-12T12:12:59.319Z,21.58
2022-09-12T12:15:27.186Z,28.85
2022-09-12T12:18:14.806Z,16.52
2022-09-12T12:20:43.389Z,37.53
2022-09-12T12:23:42.783Z,66.43
2022-09-12T12:26:32.267Z,21.55
2022-09-12T12:29:00.153Z,16.10
2022-09-12T12:31:27.529Z,13.10
2022-09-12T12:33:56.039Z,38.10
2022-09-12T12:36:40.523Z,10.55
2022-09-12T12:39:26.522Z,52.70
2022-09-12T12:41:53.424Z,57.17
2022-09-12T12:44:38.972Z,57.67
2022-09-12T12:47:29.499Z,49.83
2022-09-12T12:50:23.734Z,15.38
2022-09-12T12:53:00.833Z,7.40
2022-09-12T12:55:37.871Z,20.20
2022-09-12T12:58:27.876Z,60.50
2022-09-12T13:01:07.299Z,29.20
2022-09-12T13:03:34.655Z,47.38
2022-09-12T13:06:03.357Z,10.93
2022-09-12T13:08:31.909Z,16.48
2022-09-12T13:11:03.240Z,12.40
2022-09-12T13:13:33.116Z,47.92
2022-09-12T13:16:00.076Z,42.22
2022-09-12T13:18:28.711Z,42.00
2022-09-12T13:21:24.700Z,28.90
2022-09-12T13:24:02.310Z,3.58
2022-09-12T13:26:33.198Z,9.35
2022-09-12T13:29:10.290Z,4.75
2022-09-12T13:31:37.617Z,11.20
2022-09-12T13:34:06.578Z,7.10
2022-09-12T13:36:52.037Z,9.25
2022-09-12T13:39:24.763Z,7.53
2022-09-12T13:42:10.339Z,13.98
2022-09-12T13:44:41.525Z,21.55
2022-09-12T13:47:10.672Z,6.72
2022-09-12T13:49:38.636Z,11.70
2022-09-12T13:52:10.080Z,6.43
2022-09-12T13:54:39.063Z,5.90
2022-09-12T13:57:06.234Z,4.57
2022-09-12T13:59:40.128Z,6.40
2022-09-12T14:02:20.407Z,22.38
2022-09-12T14:05:07.140Z,12.27
2022-09-12T14:07:35.686Z,7.50
2022-09-12T14:10:05.001Z,8.52
2022-09-12T14:12:38.097Z,5.72
2022-09-12T14:15:05.749Z,4.20
2022-09-12T14:17:32.967Z,6.38
2022-09-12T14:20:06.118Z,15.65
2022-09-12T14:22:34.357Z,5.30
2022-09-12T14:25:01.241Z,4.28
2022-09-12T14:27:41.460Z,9.13
2022-09-12T14:30:19.295Z,4.35
2022-09-12T14:33:03.048Z,16.38
2022-09-12T14:35:30.420Z,14.88
2022-09-12T14:37:57.261Z,7.80
2022-09-12T14:40:24.373Z,6.93
2022-09-12T14:42:53.014Z,10.70
2022-09-12T14:45:22.801Z,6.78
2022-09-12T14:47:50.515Z,7.22
2022-09-12T14:50:18.967Z,8.10
2022-09-12T14:52:45.808Z,4.18
2022-09-12T14:55:16.316Z,4.55
2022-09-12T14:57:44.742Z,9.15
2022-09-12T15:00:11.703Z,6.53
2022-09-12T15:02:39.629Z,5.10
2022-09-12T15:05:09.864Z,5.72
2022-09-12T15:07:38.080Z,5.80
2022-09-12T15:10:06.768Z,7.65
2022-09-12T15:12:33.703Z,4.38
2022-09-12T15:15:04.267Z,3.63
2022-09-12T15:17:31.064Z,6.88
2022-09-12T15:19:58.009Z,8.77
2022-09-12T15:22:26.272Z,9.38
2022-09-12T15:24:53.677Z,15.10
2022-09-12T15:27:20.512Z,6.80
2022-09-12T15:29:47.380Z,8.63
2022-09-12T15:32:22.766Z,7.20
2022-09-12T15:34:49.847Z,8.35
2022-09-12T15:37:17.379Z,13.18
2022-09-12T15:39:45.890Z,7.40
2022-09-12T15:42:13.749Z,11.40
2022-09-12T15:44:40.688Z,8.02
2022-09-12T15:47:10.250Z,3.85
2022-09-12T15:49:37.059Z,6.82
2022-09-12T15:52:03.985Z,7.20
2022-09-12T15:54:30.823Z,4.28
2022-09-12T15:56:57.614Z,3.58
2022-09-12T15:59:25.572Z,6.65
2022-09-12T16:01:53.019Z,8.98
2022-09-12T16:04:24.728Z,5.00
2022-09-12T16:06:51.814Z,5.18
2022-09-12T16:09:18.688Z,6.35
2022-09-12T16:11:45.821Z,5.88
2022-09-12T16:14:17.154Z,5.10
2022-09-12T16:16:44.793Z,4.65
2022-09-12T16:19:12.711Z,3.17
2022-09-12T16:21:39.784Z,1.90
2022-09-12T16:24:06.808Z,3.60
2022-09-12T16:26:33.699Z,3.80
2022-09-12T16:29:00.687Z,5.32
2022-09-12T16:31:27.919Z,4.28
2022-09-12T16:33:56.012Z,4.78
2022-09-12T16:36:23.531Z,3.78
2022-09-12T16:38:51.900Z,3.08
2022-09-12T16:41:20.382Z,3.75
2022-09-12T16:43:47.314Z,2.20
2022-09-12T16:46:16.141Z,4.38
2022-09-12T16:48:48.054Z,4.35
2022-09-12T16:51:20.421Z,5.75
2022-09-12T16:53:47.583Z,2.72
2022-09-12T16:56:15.067Z,3.63
2022-09-12T16:58:42.273Z,14.52
2022-09-12T17:01:10.333Z,6.95
2022-09-12T17:03:37.331Z,22.15
2022-09-12T17:06:06.339Z,4.13
2022-09-12T17:08:35.376Z,10.63
2022-09-12T17:11:02.844Z,7.38
2022-09-12T17:13:52.882Z,3.17
2022-09-12T17:16:18.301Z,3.83
2022-09-12T17:18:45.336Z,4.40
2022-09-12T17:21:12.611Z,4.97
2022-09-12T17:23:39.820Z,4.03
2022-09-12T17:26:07.476Z,3.60
2022-09-12T17:28:34.549Z,3.75
2022-09-12T17:31:03.855Z,2.88
2022-09-12T17:33:30.822Z,4.30
2022-09-12T17:36:04.550Z,3.47
2022-09-12T17:38:32.808Z,5.55
2022-09-12T17:41:18.136Z,7.93
2022-09-12T17:43:51.171Z,8.68
2022-09-12T17:46:19.613Z,6.40
2022-09-12T17:48:50.947Z,6.45
2022-09-12T17:51:18.489Z,8.73
2022-09-12T17:53:45.544Z,5.03
2022-09-12T17:56:13.098Z,11.65
2022-09-12T17:58:40.194Z,10.95
2022-09-12T18:01:29.875Z,15.95
2022-09-12T18:03:57.580Z,14.48
2022-09-12T18:06:24.638Z,10.15
2022-09-12T18:08:52.546Z,12.85
2022-09-12T18:11:19.348Z,5.38
2022-09-12T18:13:46.647Z,8.35
2022-09-12T18:16:14.680Z,12.82
2022-09-12T18:18:41.879Z,7.90
2022-09-12T18:21:11.006Z,8.10
2022-09-12T18:23:38.810Z,10.02
2022-09-12T18:26:06.897Z,11.50
2022-09-12T18:28:34.510Z,8.85
2022-09-12T18:31:01.821Z,13.18
2022-09-12T18:33:28.953Z,12.80
2022-09-12T18:35:55.786Z,7.55
2022-09-12T18:38:22.637Z,7.97
2022-09-12T18:40:49.501Z,9.63
2022-09-12T18:43:16.386Z,18.58
2022-09-12T18:45:43.288Z,16.13
2022-09-12T18:48:10.436Z,11.23
2022-09-12T18:50:37.245Z,13.25
2022-09-12T18:53:04.091Z,11.02
2022-09-12T18:55:32.210Z,16.95
2022-09-12T18:57:59.100Z,9.05
2022-09-12T19:00:25.945Z,12.35
2022-09-12T19:02:52.783Z,9.88
2022-09-12T19:05:19.802Z,11.52
2022-09-12T19:07:46.681Z,10.85
2022-09-12T19:10:13.559Z,11.38
2022-09-12T19:12:40.486Z,10.52
2022-09-12T19:15:11.236Z,5.32
2022-09-12T19:17:38.144Z,16.50
2022-09-12T19:20:06.110Z,11.23
2022-09-12T19:22:32.982Z,7.00
2022-09-12T19:24:59.846Z,23.25
2022-09-12T19:27:26.659Z,15.45
2022-09-12T19:29:53.572Z,10.60
2022-09-12T19:32:20.338Z,15.32
2022-09-12T19:34:47.240Z,16.75
2022-09-12T19:37:14.036Z,23.05
2022-09-12T19:39:44.529Z,18.73
2022-09-12T19:42:11.969Z,24.08
2022-09-12T19:44:38.800Z,15.88
2022-09-12T19:47:06.210Z,16.77
2022-09-12T19:49:33.193Z,14.10
2022-09-12T19:52:00.709Z,11.95
2022-09-12T19:54:28.103Z,16.55
2022-09-12T19:56:55.300Z,13.63
2022-09-12T19:59:25.283Z,23.58
2022-09-12T20:01:52.335Z,16.77
2022-09-12T20:04:19.696Z,13.45
2022-09-12T20:06:46.453Z,12.15
2022-09-12T20:09:13.698Z,14.57
2022-09-12T20:11:40.780Z,19.40
2022-09-12T20:14:07.834Z,10.38
2022-09-12T20:16:34.737Z,15.15
2022-09-12T20:19:03.721Z,11.85
2022-09-12T20:21:32.113Z,9.65
2022-09-12T20:24:00.393Z,16.63
2022-09-12T20:26:27.455Z,17.75
2022-09-12T20:28:54.621Z,9.05
2022-09-12T20:31:21.406Z,26.73
2022-09-12T20:33:51.836Z,19.88
2022-09-12T20:36:20.306Z,21.30
2022-09-12T20:38:48.767Z,12.38
2022-09-12T20:41:16.822Z,24.58
2022-09-12T20:43:43.583Z,21.60
2022-09-12T20:46:11.251Z,20.40
2022-09-12T20:48:39.544Z,21.30
2022-09-12T20:51:07.092Z,23.40
2022-09-12T20:53:35.290Z,22.08
2022-09-12T20:56:03.912Z,25.55
2022-09-12T20:58:31.069Z,36.50
2022-09-12T21:01:20.168Z,18.50
2022-09-12T21:03:47.315Z,14.45
2022-09-12T21:06:14.719Z,13.68
2022-09-12T21:08:41.819Z,20.58
2022-09-12T21:11:09.124Z,21.38
2022-09-12T21:13:36.329Z,21.55
2022-09-12T21:16:07.943Z,19.85
2022-09-12T21:18:35.299Z,14.75
2022-09-12T21:21:02.092Z,20.60
2022-09-12T21:23:29.201Z,19.00
2022-09-12T21:25:55.825Z,22.20
2022-09-12T21:28:24.559Z,18.67
2022-09-12T21:30:51.582Z,19.63
2022-09-12T21:33:19.201Z,26.65
2022-09-12T21:35:47.089Z,19.45
2022-09-12T21:38:18.181Z,22.73
2022-09-12T21:40:45.359Z,23.13
2022-09-12T21:43:13.180Z,23.38
2022-09-12T21:45:41.046Z,22.77
2022-09-12T21:48:07.980Z,22.33
2022-09-12T21:50:34.718Z,19.40
2022-09-12T21:53:01.381Z,19.15
2022-09-12T21:55:28.103Z,24.73
2022-09-12T21:57:55.316Z,20.42
2022-09-12T22:00:22.118Z,16.42
2022-09-12T22:02:48.917Z,19.60
2022-09-12T22:05:15.821Z,20.90
2022-09-12T22:07:42.551Z,41.22
2022-09-12T22:10:10.049Z,20.75
2022-09-12T22:12:36.716Z,26.35
2022-09-12T22:15:22.999Z,31.30
2022-09-12T22:17:50.903Z,35.38
2022-09-12T22:20:17.660Z,19.80
2022-09-12T22:23:03.481Z,16.58
2022-09-12T22:25:30.738Z,12.35
2022-09-12T22:27:58.325Z,18.55
2022-09-12T22:30:27.571Z,25.85
2022-09-12T22:32:54.212Z,22.40
2022-09-12T22:35:21.343Z,15.70
2022-09-12T22:37:48.561Z,20.75
2022-09-12T22:40:15.901Z,17.90
2022-09-12T22:42:42.787Z,20.02
2022-09-12T22:45:10.299Z,17.52
2022-09-12T22:47:37.050Z,19.95
2022-09-12T22:50:04.452Z,30.35
2022-09-12T22:52:31.909Z,19.08
2022-09-12T22:54:59.269Z,21.05
2022-09-12T22:57:26.002Z,19.10
2022-09-12T22:59:54.150Z,17.48
2022-09-12T23:02:20.877Z,18.17
2022-09-12T23:04:48.714Z,17.20
2022-09-12T23:07:16.021Z,14.98
2022-09-12T23:09:43.419Z,13.23
2022-09-12T23:12:10.172Z,15.43
2022-09-12T23:14:37.817Z,15.07
2022-09-12T23:17:04.582Z,12.68
2022-09-12T23:19:31.770Z,10.45
2022-09-12T23:21:58.843Z,14.43
2022-09-12T23:24:27.246Z,21.52
2022-09-12T23:26:54.011Z,18.80
2022-09-12T23:29:21.381Z,13.52
2022-09-12T23:31:48.750Z,7.30
2022-09-12T23:34:15.850Z,12.93
2022-09-12T23:36:42.858Z,12.52
2022-09-12T23:39:10.225Z,15.57
2022-09-12T23:41:37.038Z,9.25
2022-09-12T23:44:04.865Z,13.38
2022-09-12T23:46:31.692Z,13.70
2022-09-12T23:48:58.752Z,10.48
2022-09-12T23:51:25.740Z,6.75
2022-09-12T23:53:52.748Z,9.88
2022-09-12T23:56:19.732Z,11.25
2022-09-12T23:58:47.315Z,8.20
